sensor_id;sensor_type;location;lat;lon;timestamp;temperature;humidity
81902;DHT22;71369;50.796;3.290;2024-01-15T00:01:12;2.90;99.90
81902;DHT22;71369;50.796;3.290;2024-01-15T00:03:37;2.80;99.90
81902;DHT22;71369;50.796;3.290;2024-01-15T00:06:03;2.80;99.90
81902;DHT22;71369;50.796;3.290;2024-01-15T00:08:29;2.80;99.90
81902;DHT22;71369;50.796;3.290;2024-01-15T00:11:01;2.80;99.90
81902;DHT22;71369;50.796;3.290;2024-01-15T00:13:27;2.90;99.90
81902;DHT22;71369;50.796;3.290;2024-01-15T00:15:53;2.90;99.90
81902;DHT22;71369;50.796;3.290;2024-01-15T00:18:20;3.00;99.90
81902;DHT22;71369;50.796;3.290;2024-01-15T00:20:49;2.80;99.90
81902;DHT22;71369;50.796;3.290;2024-01-15T00:23:15;2.80;99.90
81902;DHT22;71369;50.796;3.290;2024-01-15T00:25:42;2.80;99.90
81902;DHT22;71369;50.796;3.290;2024-01-15T00:28:08;2.90;99.90
81902;DHT22;71369;50.796;3.290;2024-01-15T00:30:34;2.80;99.90
81902;DHT22;71369;50.796;3.290;2024-01-15T00:33:00;2.80;99.90
81902;DHT22;71369;50.796;3.290;2024-01-15T00:35:25;2.80;99.90
81902;DHT22;71369;50.796;3.290;2024-01-15T00:37:51;2.90;99.90
81902;DHT22;71369;50.796;3.290;2024-01-15T00:40:17;3.00;99.90
81902;DHT22;71369;50.796;3.290;2024-01-15T00:42:43;3.10;99.90
81902;DHT22;71369;50.796;3.290;2024-01-15T00:45:12;3.00;99.90
81902;DHT22;71369;50.796;3.290;2024-01-15T00:47:37;2.90;99.90
81902;DHT22;71369;50.796;3.290;2024-01-15T00:50:03;3.00;99.90
81902;DHT22;71369;50.796;3.290;2024-01-15T00:52:30;2.90;99.90
81902;DHT22;71369;50.796;3.290;2024-01-15T00:54:57;2.90;99.90
81902;DHT22;71369;50.796;3.290;2024-01-15T00:57:22;2.90;99.90
81902;DHT22;71369;50.796;3.290;2024-01-15T00:59:51;2.80;99.90
81902;DHT22;71369;50.796;3.290;2024-01-15T01:02:17;2.90;99.90
81902;DHT22;71369;50.796;3.290;2024-01-15T01:04:42;2.80;99.90
81902;DHT22;71369;50.796;3.290;2024-01-15T01:07:08;2.80;99.90
81902;DHT22;71369;50.796;3.290;2024-01-15T01:09:34;2.80;99.90
81902;DHT22;71369;50.796;3.290;2024-01-15T01:12:00;3.00;99.90
81902;DHT22;71369;50.796;3.290;2024-01-15T01:14:26;2.90;99.90
81902;DHT22;71369;50.796;3.290;2024-01-15T01:17:11;2.80;99.90
81902;DHT22;71369;50.796;3.290;2024-01-15T01:19:37;3.00;99.90
81902;DHT22;71369;50.796;3.290;2024-01-15T01:22:06;2.90;99.90
81902;DHT22;71369;50.796;3.290;2024-01-15T01:24:33;2.90;99.90
81902;DHT22;71369;50.796;3.290;2024-01-15T01:26:59;2.90;99.90
81902;DHT22;71369;50.796;3.290;2024-01-15T01:29:28;2.90;99.90
81902;DHT22;71369;50.796;3.290;2024-01-15T01:31:54;3.10;99.90
81902;DHT22;71369;50.796;3.290;2024-01-15T01:34:25;3.10;99.90
81902;DHT22;71369;50.796;3.290;2024-01-15T01:36:55;3.00;99.90
81902;DHT22;71369;50.796;3.290;2024-01-15T01:39:21;3.00;99.90
81902;DHT22;71369;50.796;3.290;2024-01-15T01:41:46;3.20;99.90
81902;DHT22;71369;50.796;3.290;2024-01-15T01:44:14;3.20;99.90
81902;DHT22;71369;50.796;3.290;2024-01-15T01:46:40;3.10;99.90
81902;DHT22;71369;50.796;3.290;2024-01-15T01:49:07;3.00;99.90
81902;DHT22;71369;50.796;3.290;2024-01-15T01:51:35;3.00;99.90
81902;DHT22;71369;50.796;3.290;2024-01-15T01:54:01;2.80;99.90
81902;DHT22;71369;50.796;3.290;2024-01-15T01:56:28;2.80;99.90
81902;DHT22;71369;50.796;3.290;2024-01-15T01:58:54;2.90;99.90
81902;DHT22;71369;50.796;3.290;2024-01-15T02:01:20;2.90;99.90
81902;DHT22;71369;50.796;3.290;2024-01-15T02:03:47;2.90;99.90
81902;DHT22;71369;50.796;3.290;2024-01-15T02:06:13;2.80;99.90
81902;DHT22;71369;50.796;3.290;2024-01-15T02:08:39;2.70;99.90
81902;DHT22;71369;50.796;3.290;2024-01-15T02:11:08;2.80;99.90
81902;DHT22;71369;50.796;3.290;2024-01-15T02:13:34;2.70;99.90
81902;DHT22;71369;50.796;3.290;2024-01-15T02:16:00;2.70;99.90
81902;DHT22;71369;50.796;3.290;2024-01-15T02:18:25;2.80;99.90
81902;DHT22;71369;50.796;3.290;2024-01-15T02:20:51;2.80;99.90
81902;DHT22;71369;50.796;3.290;2024-01-15T02:23:17;2.80;99.90
81902;DHT22;71369;50.796;3.290;2024-01-15T02:25:44;2.80;99.90
81902;DHT22;71369;50.796;3.290;2024-01-15T02:28:13;2.80;99.90
81902;DHT22;71369;50.796;3.290;2024-01-15T02:30:41;2.70;99.90
81902;DHT22;71369;50.796;3.290;2024-01-15T02:33:08;2.80;99.90
81902;DHT22;71369;50.796;3.290;2024-01-15T02:35:35;2.70;99.90
81902;DHT22;71369;50.796;3.290;2024-01-15T02:38:05;2.70;99.90
81902;DHT22;71369;50.796;3.290;2024-01-15T02:40:33;2.80;99.90
81902;DHT22;71369;50.796;3.290;2024-01-15T02:42:58;2.80;99.90
81902;DHT22;71369;50.796;3.290;2024-01-15T02:45:24;2.70;99.90
81902;DHT22;71369;50.796;3.290;2024-01-15T02:47:50;2.80;99.90
81902;DHT22;71369;50.796;3.290;2024-01-15T02:50:16;2.70;99.90
81902;DHT22;71369;50.796;3.290;2024-01-15T02:52:42;2.80;99.90
81902;DHT22;71369;50.796;3.290;2024-01-15T02:55:08;2.80;99.90
81902;DHT22;71369;50.796;3.290;2024-01-15T02:57:34;2.80;99.90
81902;DHT22;71369;50.796;3.290;2024-01-15T03:00:00;2.80;99.90
81902;DHT22;71369;50.796;3.290;2024-01-15T03:02:27;2.80;99.90
81902;DHT22;71369;50.796;3.290;2024-01-15T03:04:54;2.90;99.90
81902;DHT22;71369;50.796;3.290;2024-01-15T03:07:19;2.70;99.90
81902;DHT22;71369;50.796;3.290;2024-01-15T03:09:48;2.70;99.90
81902;DHT22;71369;50.796;3.290;2024-01-15T03:12:17;2.80;99.90
81902;DHT22;71369;50.796;3.290;2024-01-15T03:14:43;2.80;99.90
81902;DHT22;71369;50.796;3.290;2024-01-15T03:17:12;2.80;99.90
81902;DHT22;71369;50.796;3.290;2024-01-15T03:19:39;2.80;99.90
81902;DHT22;71369;50.796;3.290;2024-01-15T03:22:05;2.80;99.90
81902;DHT22;71369;50.796;3.290;2024-01-15T03:24:48;2.80;99.90
81902;DHT22;71369;50.796;3.290;2024-01-15T03:27:15;2.90;99.90
81902;DHT22;71369;50.796;3.290;2024-01-15T03:29:41;3.00;99.90
81902;DHT22;71369;50.796;3.290;2024-01-15T03:32:10;3.00;99.90
81902;DHT22;71369;50.796;3.290;2024-01-15T03:34:35;2.90;99.90
81902;DHT22;71369;50.796;3.290;2024-01-15T03:37:05;2.90;99.90
81902;DHT22;71369;50.796;3.290;2024-01-15T03:39:31;2.80;99.90
81902;DHT22;71369;50.796;3.290;2024-01-15T03:41:57;2.80;99.90
81902;DHT22;71369;50.796;3.290;2024-01-15T03:44:32;2.90;99.90
81902;DHT22;71369;50.796;3.290;2024-01-15T03:47:01;2.80;99.90
81902;DHT22;71369;50.796;3.290;2024-01-15T03:49:27;2.80;99.90
81902;DHT22;71369;50.796;3.290;2024-01-15T03:51:57;2.90;99.90
81902;DHT22;71369;50.796;3.290;2024-01-15T03:54:22;2.90;99.90
81902;DHT22;71369;50.796;3.290;2024-01-15T03:56:54;3.00;99.90
81902;DHT22;71369;50.796;3.290;2024-01-15T03:59:23;3.00;99.90
81902;DHT22;71369;50.796;3.290;2024-01-15T04:01:50;3.10;99.90
81902;DHT22;71369;50.796;3.290;2024-01-15T04:04:21;3.10;99.90
81902;DHT22;71369;50.796;3.290;2024-01-15T04:07:08;3.10;99.90
81902;DHT22;71369;50.796;3.290;2024-01-15T04:09:38;3.20;99.90
81902;DHT22;71369;50.796;3.290;2024-01-15T04:12:06;3.20;99.90
81902;DHT22;71369;50.796;3.290;2024-01-15T04:14:40;3.20;99.90
81902;DHT22;71369;50.796;3.290;2024-01-15T04:17:29;3.20;99.90
81902;DHT22;71369;50.796;3.290;2024-01-15T04:19:57;3.20;99.90
81902;DHT22;71369;50.796;3.290;2024-01-15T04:22:26;3.20;99.90
81902;DHT22;71369;50.796;3.290;2024-01-15T04:24:52;3.10;99.90
81902;DHT22;71369;50.796;3.290;2024-01-15T04:27:19;3.20;99.90
81902;DHT22;71369;50.796;3.290;2024-01-15T04:29:45;3.20;99.90
81902;DHT22;71369;50.796;3.290;2024-01-15T04:32:13;3.00;99.90
81902;DHT22;71369;50.796;3.290;2024-01-15T04:34:42;2.90;99.90
81902;DHT22;71369;50.796;3.290;2024-01-15T04:37:08;2.80;99.90
81902;DHT22;71369;50.796;3.290;2024-01-15T04:39:33;2.90;99.90
81902;DHT22;71369;50.796;3.290;2024-01-15T04:41:59;2.90;99.90
81902;DHT22;71369;50.796;3.290;2024-01-15T04:44:25;2.90;99.90
81902;DHT22;71369;50.796;3.290;2024-01-15T04:46:50;2.90;99.90
81902;DHT22;71369;50.796;3.290;2024-01-15T04:49:16;2.90;99.90
81902;DHT22;71369;50.796;3.290;2024-01-15T04:51:45;2.80;99.90
81902;DHT22;71369;50.796;3.290;2024-01-15T04:54:10;2.80;99.90
81902;DHT22;71369;50.796;3.290;2024-01-15T04:56:37;2.80;99.90
81902;DHT22;71369;50.796;3.290;2024-01-15T04:59:02;2.80;99.90
81902;DHT22;71369;50.796;3.290;2024-01-15T05:01:32;2.80;99.90
81902;DHT22;71369;50.796;3.290;2024-01-15T05:03:59;2.80;99.90
81902;DHT22;71369;50.796;3.290;2024-01-15T05:06:26;2.90;99.90
81902;DHT22;71369;50.796;3.290;2024-01-15T05:08:52;2.90;99.90
81902;DHT22;71369;50.796;3.290;2024-01-15T05:11:17;2.90;99.90
81902;DHT22;71369;50.796;3.290;2024-01-15T05:13:43;2.90;99.90
81902;DHT22;71369;50.796;3.290;2024-01-15T05:16:09;2.90;99.90
81902;DHT22;71369;50.796;3.290;2024-01-15T05:18:35;2.90;99.90
81902;DHT22;71369;50.796;3.290;2024-01-15T05:21:03;2.90;99.90
81902;DHT22;71369;50.796;3.290;2024-01-15T05:23:31;2.80;99.90
81902;DHT22;71369;50.796;3.290;2024-01-15T05:25:57;2.80;99.90
81902;DHT22;71369;50.796;3.290;2024-01-15T05:28:23;2.80;99.90
81902;DHT22;71369;50.796;3.290;2024-01-15T05:30:49;2.90;99.90
81902;DHT22;71369;50.796;3.290;2024-01-15T05:33:17;2.80;99.90
81902;DHT22;71369;50.796;3.290;2024-01-15T05:35:49;2.80;99.90
81902;DHT22;71369;50.796;3.290;2024-01-15T05:38:16;2.80;99.90
81902;DHT22;71369;50.796;3.290;2024-01-15T05:40:43;2.70;99.90
81902;DHT22;71369;50.796;3.290;2024-01-15T05:43:09;2.90;99.90
81902;DHT22;71369;50.796;3.290;2024-01-15T05:45:35;2.90;99.90
81902;DHT22;71369;50.796;3.290;2024-01-15T05:48:01;3.00;99.90
81902;DHT22;71369;50.796;3.290;2024-01-15T05:50:27;3.00;99.90
81902;DHT22;71369;50.796;3.290;2024-01-15T05:52:53;2.90;99.90
81902;DHT22;71369;50.796;3.290;2024-01-15T05:55:18;2.90;99.90
81902;DHT22;71369;50.796;3.290;2024-01-15T05:57:45;2.70;99.90
81902;DHT22;71369;50.796;3.290;2024-01-15T06:00:11;2.70;99.90
81902;DHT22;71369;50.796;3.290;2024-01-15T06:02:40;2.80;99.90
81902;DHT22;71369;50.796;3.290;2024-01-15T06:05:06;2.80;99.90
81902;DHT22;71369;50.796;3.290;2024-01-15T06:07:35;2.80;99.90
81902;DHT22;71369;50.796;3.290;2024-01-15T06:10:02;2.90;99.90
81902;DHT22;71369;50.796;3.290;2024-01-15T06:12:28;2.80;99.90
81902;DHT22;71369;50.796;3.290;2024-01-15T06:14:54;2.80;99.90
81902;DHT22;71369;50.796;3.290;2024-01-15T06:17:19;2.80;99.90
81902;DHT22;71369;50.796;3.290;2024-01-15T06:19:45;2.80;99.90
81902;DHT22;71369;50.796;3.290;2024-01-15T06:22:11;2.80;99.90
81902;DHT22;71369;50.796;3.290;2024-01-15T06:24:37;2.80;99.90
81902;DHT22;71369;50.796;3.290;2024-01-15T06:27:02;2.70;99.90
81902;DHT22;71369;50.796;3.290;2024-01-15T06:29:30;2.80;99.90
81902;DHT22;71369;50.796;3.290;2024-01-15T06:31:56;2.80;99.90
81902;DHT22;71369;50.796;3.290;2024-01-15T06:34:22;2.70;99.90
81902;DHT22;71369;50.796;3.290;2024-01-15T06:36:48;2.90;99.90
81902;DHT22;71369;50.796;3.290;2024-01-15T06:39:14;2.80;99.90
81902;DHT22;71369;50.796;3.290;2024-01-15T06:41:40;2.70;99.90
81902;DHT22;71369;50.796;3.290;2024-01-15T06:44:12;2.80;99.90
81902;DHT22;71369;50.796;3.290;2024-01-15T06:46:45;2.60;99.90
81902;DHT22;71369;50.796;3.290;2024-01-15T06:49:11;2.70;99.90
81902;DHT22;71369;50.796;3.290;2024-01-15T06:51:37;2.70;99.90
81902;DHT22;71369;50.796;3.290;2024-01-15T06:54:04;2.70;99.90
81902;DHT22;71369;50.796;3.290;2024-01-15T06:56:30;2.50;99.90
81902;DHT22;71369;50.796;3.290;2024-01-15T06:58:56;2.50;99.90
81902;DHT22;71369;50.796;3.290;2024-01-15T07:01:22;2.50;99.90
81902;DHT22;71369;50.796;3.290;2024-01-15T07:03:48;2.50;99.90
81902;DHT22;71369;50.796;3.290;2024-01-15T07:06:15;2.40;99.90
81902;DHT22;71369;50.796;3.290;2024-01-15T07:08:42;2.10;99.90
81902;DHT22;71369;50.796;3.290;2024-01-15T07:11:09;2.10;99.90
81902;DHT22;71369;50.796;3.290;2024-01-15T07:13:36;2.00;99.90
81902;DHT22;71369;50.796;3.290;2024-01-15T07:16:05;2.00;99.90
81902;DHT22;71369;50.796;3.290;2024-01-15T07:18:32;1.70;99.90
81902;DHT22;71369;50.796;3.290;2024-01-15T07:20:57;1.60;99.90
81902;DHT22;71369;50.796;3.290;2024-01-15T07:23:25;1.60;99.90
81902;DHT22;71369;50.796;3.290;2024-01-15T07:25:50;1.60;99.90
81902;DHT22;71369;50.796;3.290;2024-01-15T07:28:17;1.50;99.90
81902;DHT22;71369;50.796;3.290;2024-01-15T07:30:43;1.50;99.90
81902;DHT22;71369;50.796;3.290;2024-01-15T07:33:08;1.40;99.90
81902;DHT22;71369;50.796;3.290;2024-01-15T07:35:36;1.40;99.90
81902;DHT22;71369;50.796;3.290;2024-01-15T07:38:02;1.40;99.90
81902;DHT22;71369;50.796;3.290;2024-01-15T07:40:28;1.40;99.90
81902;DHT22;71369;50.796;3.290;2024-01-15T07:42:56;1.30;99.90
81902;DHT22;71369;50.796;3.290;2024-01-15T07:45:28;1.30;99.90
81902;DHT22;71369;50.796;3.290;2024-01-15T07:47:54;1.40;99.90
81902;DHT22;71369;50.796;3.290;2024-01-15T07:50:20;1.30;99.90
81902;DHT22;71369;50.796;3.290;2024-01-15T07:52:45;1.30;99.90
81902;DHT22;71369;50.796;3.290;2024-01-15T07:55:11;1.30;99.90
81902;DHT22;71369;50.796;3.290;2024-01-15T07:57:37;1.20;99.90
81902;DHT22;71369;50.796;3.290;2024-01-15T08:00:05;1.30;99.90
81902;DHT22;71369;50.796;3.290;2024-01-15T08:02:31;1.20;99.90
81902;DHT22;71369;50.796;3.290;2024-01-15T08:04:58;1.20;99.90
81902;DHT22;71369;50.796;3.290;2024-01-15T08:07:25;1.30;99.90
81902;DHT22;71369;50.796;3.290;2024-01-15T08:09:52;1.20;99.90
81902;DHT22;71369;50.796;3.290;2024-01-15T08:12:18;1.30;99.90
81902;DHT22;71369;50.796;3.290;2024-01-15T08:14:43;1.30;99.90
81902;DHT22;71369;50.796;3.290;2024-01-15T08:17:11;1.40;99.90
81902;DHT22;71369;50.796;3.290;2024-01-15T08:19:37;1.40;99.90
81902;DHT22;71369;50.796;3.290;2024-01-15T08:22:03;1.40;99.90
81902;DHT22;71369;50.796;3.290;2024-01-15T08:24:28;1.50;99.90
81902;DHT22;71369;50.796;3.290;2024-01-15T08:26:54;1.80;99.90
81902;DHT22;71369;50.796;3.290;2024-01-15T08:29:21;2.10;99.90
81902;DHT22;71369;50.796;3.290;2024-01-15T08:31:48;2.30;99.90
81902;DHT22;71369;50.796;3.290;2024-01-15T08:34:15;2.60;99.90
81902;DHT22;71369;50.796;3.290;2024-01-15T08:36:41;2.80;99.90
81902;DHT22;71369;50.796;3.290;2024-01-15T08:39:10;3.10;99.90
81902;DHT22;71369;50.796;3.290;2024-01-15T08:41:36;3.40;99.90
81902;DHT22;71369;50.796;3.290;2024-01-15T08:44:05;3.80;99.90
81902;DHT22;71369;50.796;3.290;2024-01-15T08:46:31;4.10;99.90
81902;DHT22;71369;50.796;3.290;2024-01-15T08:48:57;4.10;99.90
81902;DHT22;71369;50.796;3.290;2024-01-15T08:51:24;4.00;99.90
81902;DHT22;71369;50.796;3.290;2024-01-15T08:53:54;4.10;99.90
81902;DHT22;71369;50.796;3.290;2024-01-15T08:56:21;4.60;99.90
81902;DHT22;71369;50.796;3.290;2024-01-15T08:58:49;4.90;99.90
81902;DHT22;71369;50.796;3.290;2024-01-15T09:01:17;5.00;99.90
81902;DHT22;71369;50.796;3.290;2024-01-15T09:03:43;4.80;99.90
81902;DHT22;71369;50.796;3.290;2024-01-15T09:06:10;4.70;99.90
81902;DHT22;71369;50.796;3.290;2024-01-15T09:08:36;4.80;99.90
81902;DHT22;71369;50.796;3.290;2024-01-15T09:11:02;4.80;99.90
81902;DHT22;71369;50.796;3.290;2024-01-15T09:13:31;4.80;99.90
81902;DHT22;71369;50.796;3.290;2024-01-15T09:15:58;5.10;99.00
81902;DHT22;71369;50.796;3.290;2024-01-15T09:18:24;5.30;99.90
81902;DHT22;71369;50.796;3.290;2024-01-15T09:20:52;5.40;95.50
81902;DHT22;71369;50.796;3.290;2024-01-15T09:23:18;5.60;95.30
81902;DHT22;71369;50.796;3.290;2024-01-15T09:25:43;5.80;93.30
81902;DHT22;71369;50.796;3.290;2024-01-15T09:28:13;5.80;92.20
81902;DHT22;71369;50.796;3.290;2024-01-15T09:30:39;5.90;93.20
81902;DHT22;71369;50.796;3.290;2024-01-15T09:33:12;5.90;91.00
81902;DHT22;71369;50.796;3.290;2024-01-15T09:35:40;5.70;91.80
81902;DHT22;71369;50.796;3.290;2024-01-15T09:38:06;5.90;89.50
81902;DHT22;71369;50.796;3.290;2024-01-15T09:40:45;6.00;90.20
81902;DHT22;71369;50.796;3.290;2024-01-15T09:43:12;6.10;85.70
81902;DHT22;71369;50.796;3.290;2024-01-15T09:45:39;6.20;87.80
81902;DHT22;71369;50.796;3.290;2024-01-15T09:48:06;6.10;86.80
81902;DHT22;71369;50.796;3.290;2024-01-15T09:50:34;6.20;84.80
81902;DHT22;71369;50.796;3.290;2024-01-15T09:53:02;6.20;81.50
81902;DHT22;71369;50.796;3.290;2024-01-15T09:55:29;6.40;79.70
81902;DHT22;71369;50.796;3.290;2024-01-15T09:57:55;6.80;75.00
81902;DHT22;71369;50.796;3.290;2024-01-15T10:00:22;7.10;71.90
81902;DHT22;71369;50.796;3.290;2024-01-15T10:02:48;7.90;67.90
81902;DHT22;71369;50.796;3.290;2024-01-15T10:05:15;8.70;63.00
81902;DHT22;71369;50.796;3.290;2024-01-15T10:07:41;8.90;61.90
81902;DHT22;71369;50.796;3.290;2024-01-15T10:10:07;9.00;60.80
81902;DHT22;71369;50.796;3.290;2024-01-15T10:12:34;9.20;60.00
81902;DHT22;71369;50.796;3.290;2024-01-15T10:15:00;8.70;60.00
81902;DHT22;71369;50.796;3.290;2024-01-15T10:17:26;8.80;60.30
81902;DHT22;71369;50.796;3.290;2024-01-15T10:19:56;8.50;61.00
81902;DHT22;71369;50.796;3.290;2024-01-15T10:22:22;8.20;61.70
81902;DHT22;71369;50.796;3.290;2024-01-15T10:24:49;7.70;63.70
81902;DHT22;71369;50.796;3.290;2024-01-15T10:27:18;7.60;65.80
81902;DHT22;71369;50.796;3.290;2024-01-15T10:29:44;7.30;66.90
81902;DHT22;71369;50.796;3.290;2024-01-15T10:32:11;7.30;68.50
81902;DHT22;71369;50.796;3.290;2024-01-15T10:34:38;7.50;68.70
81902;DHT22;71369;50.796;3.290;2024-01-15T10:37:07;7.30;67.00
81902;DHT22;71369;50.796;3.290;2024-01-15T10:39:33;7.30;68.30
81902;DHT22;71369;50.796;3.290;2024-01-15T10:41:59;7.20;70.40
81902;DHT22;71369;50.796;3.290;2024-01-15T10:44:28;7.40;68.30
81902;DHT22;71369;50.796;3.290;2024-01-15T10:46:55;7.10;70.30
81902;DHT22;71369;50.796;3.290;2024-01-15T10:49:22;7.20;70.00
81902;DHT22;71369;50.796;3.290;2024-01-15T10:51:52;6.90;70.40
81902;DHT22;71369;50.796;3.290;2024-01-15T10:54:20;6.80;75.60
81902;DHT22;71369;50.796;3.290;2024-01-15T10:56:53;7.00;73.60
81902;DHT22;71369;50.796;3.290;2024-01-15T10:59:22;7.30;68.20
81902;DHT22;71369;50.796;3.290;2024-01-15T11:01:52;7.20;66.90
81902;DHT22;71369;50.796;3.290;2024-01-15T11:04:20;7.00;65.40
81902;DHT22;71369;50.796;3.290;2024-01-15T11:06:50;6.60;67.20
81902;DHT22;71369;50.796;3.290;2024-01-15T11:09:16;6.70;69.40
81902;DHT22;71369;50.796;3.290;2024-01-15T11:11:45;7.10;65.80
81902;DHT22;71369;50.796;3.290;2024-01-15T11:14:38;7.00;64.00
81902;DHT22;71369;50.796;3.290;2024-01-15T11:17:04;6.50;66.00
81902;DHT22;71369;50.796;3.290;2024-01-15T11:19:42;6.70;64.40
81902;DHT22;71369;50.796;3.290;2024-01-15T11:25:15;7.40;61.70
81902;DHT22;71369;50.796;3.290;2024-01-15T11:27:46;7.50;63.10
81902;DHT22;71369;50.796;3.290;2024-01-15T11:30:13;7.40;63.20
81902;DHT22;71369;50.796;3.290;2024-01-15T11:32:39;7.20;63.60
81902;DHT22;71369;50.796;3.290;2024-01-15T11:35:10;7.00;66.10
81902;DHT22;71369;50.796;3.290;2024-01-15T11:42:59;7.00;65.30
81902;DHT22;71369;50.796;3.290;2024-01-15T11:45:27;6.70;68.70
81902;DHT22;71369;50.796;3.290;2024-01-15T11:48:15;6.30;71.70
81902;DHT22;71369;50.796;3.290;2024-01-15T11:50:48;6.00;75.70
81902;DHT22;71369;50.796;3.290;2024-01-15T11:53:47;5.80;78.60
81902;DHT22;71369;50.796;3.290;2024-01-15T11:56:18;5.40;84.40
81902;DHT22;71369;50.796;3.290;2024-01-15T11:58:47;5.40;86.30
81902;DHT22;71369;50.796;3.290;2024-01-15T12:01:13;5.40;86.10
81902;DHT22;71369;50.796;3.290;2024-01-15T12:03:48;5.40;89.80
81902;DHT22;71369;50.796;3.290;2024-01-15T12:06:18;5.60;90.80
81902;DHT22;71369;50.796;3.290;2024-01-15T12:09:06;5.90;89.80
81902;DHT22;71369;50.796;3.290;2024-01-15T12:11:36;6.20;82.60
81902;DHT22;71369;50.796;3.290;2024-01-15T12:14:04;5.90;82.40
81902;DHT22;71369;50.796;3.290;2024-01-15T12:16:30;5.60;84.70
81902;DHT22;71369;50.796;3.290;2024-01-15T12:18:57;5.40;85.80
81902;DHT22;71369;50.796;3.290;2024-01-15T12:21:23;5.20;83.10
81902;DHT22;71369;50.796;3.290;2024-01-15T12:23:51;5.20;85.40
81902;DHT22;71369;50.796;3.290;2024-01-15T12:26:23;5.40;87.10
81902;DHT22;71369;50.796;3.290;2024-01-15T12:28:54;6.00;80.00
81902;DHT22;71369;50.796;3.290;2024-01-15T12:31:20;6.10;79.60
81902;DHT22;71369;50.796;3.290;2024-01-15T12:33:46;6.00;79.20
81902;DHT22;71369;50.796;3.290;2024-01-15T12:36:14;5.90;82.30
81902;DHT22;71369;50.796;3.290;2024-01-15T12:38:39;5.60;84.40
81902;DHT22;71369;50.796;3.290;2024-01-15T12:41:06;5.40;86.70
81902;DHT22;71369;50.796;3.290;2024-01-15T12:43:32;5.80;87.50
81902;DHT22;71369;50.796;3.290;2024-01-15T12:45:58;6.80;77.40
81902;DHT22;71369;50.796;3.290;2024-01-15T12:48:24;7.20;70.10
81902;DHT22;71369;50.796;3.290;2024-01-15T12:50:52;7.00;70.80
81902;DHT22;71369;50.796;3.290;2024-01-15T12:53:24;6.70;73.70
81902;DHT22;71369;50.796;3.290;2024-01-15T12:55:50;6.90;74.00
81902;DHT22;71369;50.796;3.290;2024-01-15T12:58:20;7.30;70.40
81902;DHT22;71369;50.796;3.290;2024-01-15T13:01:03;7.90;68.40
81902;DHT22;71369;50.796;3.290;2024-01-15T13:03:32;8.30;65.80
81902;DHT22;71369;50.796;3.290;2024-01-15T13:05:58;8.60;65.20
81902;DHT22;71369;50.796;3.290;2024-01-15T13:08:26;8.40;63.00
81902;DHT22;71369;50.796;3.290;2024-01-15T13:10:54;8.00;66.40
81902;DHT22;71369;50.796;3.290;2024-01-15T13:13:23;7.80;69.60
81902;DHT22;71369;50.796;3.290;2024-01-15T13:15:57;8.10;68.30
81902;DHT22;71369;50.796;3.290;2024-01-15T13:18:23;8.20;66.40
81902;DHT22;71369;50.796;3.290;2024-01-15T13:20:58;8.20;65.60
81902;DHT22;71369;50.796;3.290;2024-01-15T13:23:23;8.00;66.80
81902;DHT22;71369;50.796;3.290;2024-01-15T13:25:50;7.50;69.00
81902;DHT22;71369;50.796;3.290;2024-01-15T13:28:17;7.30;72.90
81902;DHT22;71369;50.796;3.290;2024-01-15T13:30:44;6.80;75.50
81902;DHT22;71369;50.796;3.290;2024-01-15T13:33:13;6.70;77.30
81902;DHT22;71369;50.796;3.290;2024-01-15T13:35:39;6.40;80.80
81902;DHT22;71369;50.796;3.290;2024-01-15T13:38:05;6.10;86.80
81902;DHT22;71369;50.796;3.290;2024-01-15T13:40:33;6.00;90.30
81902;DHT22;71369;50.796;3.290;2024-01-15T13:42:59;6.10;92.20
81902;DHT22;71369;50.796;3.290;2024-01-15T13:45:26;6.20;89.70
81902;DHT22;71369;50.796;3.290;2024-01-15T13:47:51;6.20;89.70
81902;DHT22;71369;50.796;3.290;2024-01-15T13:50:19;6.40;88.70
81902;DHT22;71369;50.796;3.290;2024-01-15T13:52:54;6.70;85.80
81902;DHT22;71369;50.796;3.290;2024-01-15T13:55:21;7.30;80.30
81902;DHT22;71369;50.796;3.290;2024-01-15T13:57:49;7.50;75.80
81902;DHT22;71369;50.796;3.290;2024-01-15T14:00:15;7.60;75.40
81902;DHT22;71369;50.796;3.290;2024-01-15T14:02:44;7.20;73.90
81902;DHT22;71369;50.796;3.290;2024-01-15T14:05:10;6.60;77.30
81902;DHT22;71369;50.796;3.290;2024-01-15T14:07:39;6.20;81.00
81902;DHT22;71369;50.796;3.290;2024-01-15T14:10:05;6.00;79.90
81902;DHT22;71369;50.796;3.290;2024-01-15T14:12:33;5.50;88.00
81902;DHT22;71369;50.796;3.290;2024-01-15T14:15:00;5.50;89.60
81902;DHT22;71369;50.796;3.290;2024-01-15T14:17:27;5.50;90.30
81902;DHT22;71369;50.796;3.290;2024-01-15T14:19:53;5.60;87.00
81902;DHT22;71369;50.796;3.290;2024-01-15T14:22:19;5.30;91.10
81902;DHT22;71369;50.796;3.290;2024-01-15T14:24:45;5.20;93.20
81902;DHT22;71369;50.796;3.290;2024-01-15T14:27:10;4.90;94.00
81902;DHT22;71369;50.796;3.290;2024-01-15T14:29:36;4.70;96.60
81902;DHT22;71369;50.796;3.290;2024-01-15T14:32:02;4.50;98.20
81902;DHT22;71369;50.796;3.290;2024-01-15T14:34:28;4.40;98.50
81902;DHT22;71369;50.796;3.290;2024-01-15T14:36:54;4.40;98.90
81902;DHT22;71369;50.796;3.290;2024-01-15T14:39:22;4.40;98.00
81902;DHT22;71369;50.796;3.290;2024-01-15T14:41:48;4.40;98.40
81902;DHT22;71369;50.796;3.290;2024-01-15T14:44:14;4.30;98.60
81902;DHT22;71369;50.796;3.290;2024-01-15T14:46:40;4.30;99.40
81902;DHT22;71369;50.796;3.290;2024-01-15T14:49:06;4.40;99.70
81902;DHT22;71369;50.796;3.290;2024-01-15T14:51:32;4.50;98.60
81902;DHT22;71369;50.796;3.290;2024-01-15T14:53:58;4.60;99.10
81902;DHT22;71369;50.796;3.290;2024-01-15T14:56:23;4.60;99.50
81902;DHT22;71369;50.796;3.290;2024-01-15T14:59:07;4.50;98.90
81902;DHT22;71369;50.796;3.290;2024-01-15T15:01:33;4.60;99.40
81902;DHT22;71369;50.796;3.290;2024-01-15T15:03:58;4.70;98.50
81902;DHT22;71369;50.796;3.290;2024-01-15T15:06:25;4.60;98.40
81902;DHT22;71369;50.796;3.290;2024-01-15T15:08:56;4.40;98.80
81902;DHT22;71369;50.796;3.290;2024-01-15T15:11:25;4.30;99.90
81902;DHT22;71369;50.796;3.290;2024-01-15T15:13:52;4.20;99.90
81902;DHT22;71369;50.796;3.290;2024-01-15T15:16:17;4.00;99.90
81902;DHT22;71369;50.796;3.290;2024-01-15T15:18:43;3.80;99.90
81902;DHT22;71369;50.796;3.290;2024-01-15T15:21:10;3.70;99.90
81902;DHT22;71369;50.796;3.290;2024-01-15T15:23:36;3.70;99.90
81902;DHT22;71369;50.796;3.290;2024-01-15T15:26:04;3.70;99.90
81902;DHT22;71369;50.796;3.290;2024-01-15T15:28:32;3.70;99.90
81902;DHT22;71369;50.796;3.290;2024-01-15T15:31:02;3.60;99.90
81902;DHT22;71369;50.796;3.290;2024-01-15T15:33:28;3.40;99.90
81902;DHT22;71369;50.796;3.290;2024-01-15T15:35:55;3.50;99.90
81902;DHT22;71369;50.796;3.290;2024-01-15T15:38:21;3.40;99.90
81902;DHT22;71369;50.796;3.290;2024-01-15T15:40:48;3.50;99.90
81902;DHT22;71369;50.796;3.290;2024-01-15T15:43:14;3.70;99.90
81902;DHT22;71369;50.796;3.290;2024-01-15T15:45:40;3.70;99.90
81902;DHT22;71369;50.796;3.290;2024-01-15T15:48:07;3.70;99.90
81902;DHT22;71369;50.796;3.290;2024-01-15T15:50:33;3.70;99.90
81902;DHT22;71369;50.796;3.290;2024-01-15T15:52:59;3.60;99.90
81902;DHT22;71369;50.796;3.290;2024-01-15T15:55:26;3.50;99.90